• Join FlightAware (Why Join?)
  • Login
  • US Flag 
03:37AM EDT


 

Airport Tracker/Info


-or-


 

Live Flight TrackerFlight Track Log ✈ AWE1821 ✈ 09-May-2013 ✈ KPHL - KIAH

Flight Track Log - Related Links

Times and Time Zones

All times are in EDT time to prevent confusion due to time zone crossing. See the AWE1821 flight status page for this flight to view local times or setup timezone preferences in your user account.

Time Position Orientation Groundspeed Altitude Reporting Facility
EDT Latitude Longitude Course Direction KTS MPH feet Rate Location/Type
09:48AM 39.8833 -75.2167 270° West 165 190 900  Level Philadelphia TRACON
09:49AM 39.9000 -75.1667 67° East 176 203 2,000 1,740 Climbing Philadelphia TRACON
09:50AM 39.9167 -75.1000 72° East 229 264 3,900 2,040 Climbing Philadelphia TRACON
09:51AM 39.8349 -75.6454 247° West  Level FlightAware Approximate
09:51AM 39.9667 -75.1000 360° North 247 284 6,100  Level Philadelphia TRACON
09:52AM 39.8329 -75.7858 258° West  Level FlightAware Approximate
09:52AM 39.9667 -75.1833 270° West 262 302 8,300  Level Philadelphia TRACON
09:53AM 39.8100 -75.9234 258° West  Level FlightAware Approximate
09:53AM 39.9500 -75.2833 258° West 290 334 10,000  Level Philadelphia TRACON
09:54AM 39.8000 -76.0628 270° West  Level FlightAware Approximate
09:54AM 39.9167 -75.4000 250° West 296 341 10,000  Level Philadelphia TRACON
09:55AM 39.9131 -75.4286 261° West 299 344 10,000  Level New York Center
09:56AM 39.8947 -75.5247 256° West 299 344 10,000  Level New York Center
09:57AM 39.8714 -75.6342 255° West 311 358 10,000 600 Level New York Center
09:58AM 39.8528 -75.7303 256° West 311 358 11,300 1,800 Climbing New York Center
09:59AM 39.8311 -75.8475 257° West 311 358 13,700 2,160 Climbing New York Center
10:00AM 39.8203 -75.9522 262° West 317 365 15,700 2,220 Climbing New York Center
10:01AM 39.7981 -76.0803 257° West 333 383 18,200 2,100 Climbing New York Center
10:03AM 39.6469 -76.3244 231° Southwest 379 436 22,900 1,860 Climbing Washington Center
10:04AM 39.5794 -76.4289 230° Southwest 385 443 24,600 1,620 Climbing Washington Center
10:05AM 39.5119 -76.5303 229° Southwest 397 457 26,200 1,560 Climbing Washington Center
10:06AM 39.4403 -76.6397 230° Southwest 402 463 27,800 1,380 Climbing Washington Center
10:07AM 39.3683 -76.7539 231° Southwest 402 463 29,000 1,380 Climbing Washington Center
10:08AM 39.2944 -76.8656 229° Southwest 402 463 30,600 1,440 Climbing Washington Center
10:09AM 39.2222 -76.9794 231° Southwest 407 468 32,000 1,140 Climbing Washington Center
10:10AM 39.1500 -77.0906 230° Southwest 407 468 33,000 1,020 Climbing Washington Center
10:11AM 39.0778 -77.2039 231° Southwest 407 468 34,100 1,140 Climbing Washington Center
10:12AM 39.0075 -77.3119 230° Southwest 407 468 35,300 900 Climbing Washington Center
10:13AM 38.9286 -77.4328 230° Southwest 407 468 36,000 300 Climbing Washington Center
10:14AM 38.8622 -77.5325 229° Southwest 407 468 36,000  Level Washington Center
10:15AM 38.7767 -77.6606 229° Southwest 419 482 36,000  Level Washington Center
10:16AM 38.6953 -77.7833 230° Southwest 435 501 36,000  Level Washington Center
10:17AM 38.6181 -77.9061 231° Southwest 447 514 36,000  Level Washington Center
10:18AM 38.5469 -78.0258 233° Southwest 442 509 36,000  Level Washington Center
10:19AM 38.4756 -78.1483 233° Southwest 436 502 36,000  Level Washington Center
10:20AM 38.4039 -78.2731 234° Southwest 436 502 36,000  Level Washington Center
10:21AM 38.3281 -78.3972 232° Southwest 436 502 36,000  Level Washington Center
10:22AM 38.2564 -78.5217 234° Southwest 436 502 36,000  Level Washington Center
10:23AM 38.1867 -78.6456 234° Southwest 436 502 36,000  Level Washington Center
10:24AM 38.1189 -78.7589 233° Southwest 448 516 36,000  Level Washington Center
10:25AM 38.0450 -78.8772 232° Southwest 448 516 36,000  Level Washington Center
10:26AM 37.9706 -79.0003 233° Southwest 443 510 36,000  Level Washington Center
10:27AM 37.8917 -79.1336 233° Southwest 443 510 36,000  Level Washington Center
10:28AM 37.8294 -79.2594 238° Southwest 437 503 36,000  Level Washington Center
10:29AM 37.7647 -79.3903 238° Southwest 432 497 36,000  Level Washington Center
10:30AM 37.7050 -79.5028 236° Southwest 432 497 36,000  Level Washington Center
10:31AM 37.6378 -79.6411 238° Southwest 426 490 36,000  Level Washington Center
10:32AM 37.5794 -79.7558 237° Southwest 426 490 36,000  Level Washington Center
10:34AM 37.4556 -79.9975 237° Southwest 462 532 36,000  Level Atlanta Center
10:35AM 37.3928 -80.1183 237° Southwest 448 516 36,000  Level Atlanta Center
10:36AM 37.3300 -80.2442 238° Southwest 435 501 36,000  Level Atlanta Center
10:37AM 37.2589 -80.3778 236° Southwest 427 491 36,000  Level Atlanta Center
10:38AM 37.1958 -80.5006 237° Southwest 427 491 36,000  Level Atlanta Center
10:39AM 37.1306 -80.6258 237° Southwest 427 491 36,000  Level Atlanta Center
10:40AM 37.0714 -80.7481 239° Southwest 427 491 36,000  Level Atlanta Center
10:41AM 37.0308 -80.8694 247° West 427 491 36,000  Level Atlanta Center
10:42AM 36.9819 -80.9986 245° Southwest 417 480 36,000  Level Atlanta Center
10:43AM 36.9331 -81.1331 246° West 412 474 36,000  Level Atlanta Center
10:44AM 36.8842 -81.2750 247° West 412 474 36,000  Level Atlanta Center
10:45AM 36.8372 -81.4061 246° West 412 474 36,000  Level Atlanta Center
10:46AM 36.7836 -81.5350 243° Southwest 412 474 36,000  Level Atlanta Center
10:47AM 36.7294 -81.6481 239° Southwest 419 482 36,000  Level Atlanta Center
10:48AM 36.6631 -81.7692 236° Southwest 431 496 36,000  Level Atlanta Center
10:49AM 36.5942 -81.8925 235° Southwest 431 496 36,000  Level Atlanta Center
10:50AM 36.5256 -82.0158 235° Southwest 431 496 36,000  Level Atlanta Center
10:51AM 36.4606 -82.1364 236° Southwest 431 496 36,000  Level Atlanta Center
10:52AM 36.3917 -82.2617 236° Southwest 436 502 36,000  Level Atlanta Center
10:53AM 36.3244 -82.3844 236° Southwest 436 502 36,000  Level Atlanta Center
10:54AM 36.2553 -82.5094 236° Southwest 441 507 36,000  Level Atlanta Center
10:55AM 36.1817 -82.6444 236° Southwest 441 507 36,000  Level Atlanta Center
10:56AM 36.1100 -82.7667 234° Southwest 441 507 36,000  Level Atlanta Center
10:57AM 36.0444 -82.8908 237° Southwest 446 513 36,000  Level Atlanta Center
10:58AM 35.9725 -83.0125 234° Southwest 446 513 36,000  Level Atlanta Center
10:59AM 35.9069 -83.1389 237° Southwest 446 513 36,000  Level Atlanta Center
11:00AM 35.8367 -83.2600 234° Southwest 446 513 36,000  Level Atlanta Center
11:01AM 35.7686 -83.3811 235° Southwest 446 513 36,000  Level Atlanta Center
11:02AM 35.6983 -83.5044 235° Southwest 446 513 36,000  Level Atlanta Center
11:03AM 35.6300 -83.6247 235° Southwest 446 513 36,000  Level Atlanta Center
11:04AM 35.5614 -83.7478 236° Southwest 446 513 36,000  Level Atlanta Center
11:05AM 35.4886 -83.8703 234° Southwest 446 513 36,000  Level Atlanta Center
11:06AM 35.4178 -83.9956 235° Southwest 446 513 36,000  Level Atlanta Center
11:07AM 35.3489 -84.1153 235° Southwest 446 513 36,000  Level Atlanta Center
11:08AM 35.2758 -84.2372 234° Southwest 446 513 36,000  Level Atlanta Center
11:09AM 35.2150 -84.3464 236° Southwest 446 513 36,000  Level Atlanta Center
11:10AM 35.1439 -84.4681 234° Southwest 446 513 36,000  Level Atlanta Center
11:11AM 35.0703 -84.5919 234° Southwest 446 513 36,000  Level Atlanta Center
11:12AM 35.0028 -84.7108 235° Southwest 446 513 36,000  Level Atlanta Center
11:13AM 34.9292 -84.8317 233° Southwest 446 513 36,000  Level Atlanta Center
11:14AM 34.8575 -84.9500 234° Southwest 446 513 36,000  Level Atlanta Center
11:15AM 34.7897 -85.0681 235° Southwest 441 507 36,000  Level Atlanta Center
11:16AM 34.7178 -85.1861 233° Southwest 441 507 36,000  Level Atlanta Center
11:17AM 34.6478 -85.3039 234° Southwest 446 513 36,000  Level Atlanta Center
11:18AM 34.5775 -85.4214 234° Southwest 446 513 36,000  Level Atlanta Center
11:19AM 34.5072 -85.5386 234° Southwest 441 507 36,000  Level Atlanta Center
11:20AM 34.4369 -85.6558 234° Southwest 441 507 36,000  Level Atlanta Center
11:21AM 34.3642 -85.7778 234° Southwest 446 513 36,000  Level Atlanta Center
11:22AM 34.2875 -85.8967 232° Southwest 438 504 36,000  Level Atlanta Center
11:23AM 34.2167 -86.0158 234° Southwest 438 504 36,000  Level Atlanta Center
11:24AM 34.1439 -86.1319 233° Southwest 438 504 36,000  Level Atlanta Center
11:25AM 34.0750 -86.2483 234° Southwest 438 504 36,000  Level Atlanta Center
11:26AM 34.0019 -86.3642 233° Southwest 438 504 36,000  Level Atlanta Center
11:27AM 33.9286 -86.4797 233° Southwest 433 498 36,000  Level Atlanta Center
11:28AM 33.8597 -86.5931 234° Southwest 433 498 36,000  Level Atlanta Center
11:29AM 33.7861 -86.7083 232° Southwest 433 498 36,000  Level Atlanta Center
11:30AM 33.7233 -86.8086 233° Southwest 433 498 36,000  Level Atlanta Center
11:31AM 33.6581 -86.9264 236° Southwest 433 498 36,000  Level Atlanta Center
11:32AM 33.6153 -87.0547 248° West 422 486 36,000  Level Atlanta Center
11:34AM 33.5200 -87.3322 248° West 417 480 36,000  Level Memphis Center
11:35AM 33.4794 -87.4608 249° West 417 480 36,000 300 Level Memphis Center
11:36AM 33.4322 -87.5867 246° West 417 480 36,600 960 Climbing Memphis Center
11:37AM 33.3889 -87.7125 248° West 417 480 38,000 660 Climbing Memphis Center
11:38AM 33.3475 -87.8331 248° West 411 473 38,000  Level Memphis Center
11:39AM 33.3061 -87.9536 248° West 400 460 38,000  Level Memphis Center
11:40AM 33.2647 -88.0764 248° West 400 460 38,000  Level Memphis Center
11:41AM 33.2192 -88.2117 248° West 400 460 38,000  Level Memphis Center
11:42AM 33.1753 -88.3319 246° West 395 455 38,000  Level Memphis Center
11:43AM 33.1333 -88.4544 248° West 395 455 38,000  Level Memphis Center
11:44AM 33.0892 -88.5769 247° West 395 455 38,000  Level Memphis Center
11:45AM 33.0469 -88.7017 248° West 395 455 38,000  Level Memphis Center
11:46AM 33.0025 -88.8189 246° West 395 455 38,000  Level Memphis Center
11:47AM 32.9603 -88.9386 247° West 395 455 38,000  Level Memphis Center
11:48AM 32.9178 -89.0556 247° West 395 455 38,000  Level Memphis Center
11:49AM 32.8750 -89.1725 246° West 395 455 38,000  Level Memphis Center
11:50AM 32.8342 -89.2892 247° West 395 455 38,000  Level Memphis Center
11:51AM 32.7914 -89.4008 246° West 390 449 38,000  Level Memphis Center
11:52AM 32.7506 -89.5100 246° West 379 436 38,000  Level Memphis Center
11:53AM 32.7094 -89.6239 247° West 379 436 38,000  Level Memphis Center
11:54AM 32.6661 -89.7403 246° West 379 436 38,000  Level Memphis Center
11:55AM 32.6228 -89.8517 245° Southwest 379 436 38,000  Level Memphis Center
11:56AM 32.5814 -89.9678 247° West 379 436 38,000  Level Memphis Center
11:57AM 32.5381 -90.0814 246° West 379 436 38,000  Level Memphis Center
11:58AM 32.4944 -90.1922 245° Southwest 379 436 38,000  Level Memphis Center
11:59AM 32.4361 -90.3006 237° Southwest 385 443 38,000  Level Memphis Center
12:00PM 32.3817 -90.4089 239° Southwest 396 456 38,000  Level Memphis Center
12:02PM 32.2714 -90.6214 239° Southwest 385 443 38,000  Level Houston Center
12:03PM 32.2156 -90.7253 238° Southwest 380 437 38,000  Level Houston Center
12:04PM 32.1592 -90.8350 239° Southwest 382 440 38,000  Level Houston Center
12:05PM 32.0906 -90.9617 237° Southwest 385 443 38,000  Level Houston Center
12:06PM 32.0347 -91.0681 238° Southwest 383 441 38,000  Level Houston Center
12:07PM 31.9775 -91.1736 237° Southwest 384 442 38,000  Level Houston Center
12:08PM 31.9214 -91.2786 238° Southwest 382 440 38,000  Level Houston Center
12:09PM 31.8644 -91.3844 238° Southwest 383 441 38,000  Level Houston Center
12:10PM 31.8092 -91.4889 238° Southwest 379 436 38,000  Level Houston Center
12:11PM 31.7414 -91.6136 237° Southwest 379 436 38,000  Level Houston Center
12:12PM 31.6853 -91.7178 238° Southwest 379 436 38,000  Level Houston Center
12:14PM 31.6292 -91.8225 238° Southwest 380 437 38,000  Level Houston Center
12:15PM 31.5706 -91.9292 237° Southwest 390 449 38,000  Level Houston Center
12:16PM 31.5125 -92.0356 237° Southwest 397 457 38,000  Level Houston Center
12:17PM 31.4525 -92.1419 237° Southwest 394 453 38,000  Level Houston Center
12:18PM 31.3828 -92.2697 237° Southwest 391 450 38,000  Level Houston Center
12:19PM 31.3242 -92.3772 237° Southwest 393 452 38,000  Level Houston Center
12:20PM 31.2636 -92.4853 237° Southwest 397 457 38,000  Level Houston Center
12:21PM 31.2039 -92.5900 236° Southwest 391 450 38,000  Level Houston Center
12:22PM 31.1481 -92.6953 238° Southwest 383 441 38,000 -120 Level Houston Center
12:23PM 31.0789 -92.8178 237° Southwest 378 435 37,800 -540 Descending Houston Center
12:24PM 31.0217 -92.9219 237° Southwest 382 440 36,900 -840 Descending Houston Center
12:25PM 30.9628 -93.0261 237° Southwest 385 443 36,100 -840 Descending Houston Center
12:26PM 30.9028 -93.1317 236° Southwest 389 448 35,200 -1,260 Descending Houston Center
12:27PM 30.8425 -93.2381 237° Southwest 394 453 33,600 -2,100 Descending Houston Center
12:28PM 30.7706 -93.3689 237° Southwest 401 461 30,900 -2,460 Descending Houston Center
12:29PM 30.7072 -93.4789 236° Southwest 409 471 28,600 -2,220 Descending Houston Center
12:30PM 30.6467 -93.5864 237° Southwest 405 466 26,300 -2,100 Descending Houston Center
12:31PM 30.5881 -93.6881 236° Southwest 388 447 24,300 -2,040 Descending Houston Center
12:32PM 30.5306 -93.7875 236° Southwest 378 435 22,200 -2,280 Descending Houston Center
12:33PM 30.4622 -93.9078 237° Southwest 376 433 19,700 -2,220 Descending Houston Center
12:34PM 30.4044 -94.0072 236° Southwest 377 434 17,700 -2,100 Descending Houston Center
12:35PM 30.3597 -94.0864 237° Southwest 374 430 16,100 -2,040 Descending Houston Center
12:35PM 30.3464 -94.1061 232° Southwest 374 430 15,600 -1,860 Descending Houston Center
12:36PM 30.2753 -94.2308 237° Southwest 352 405 13,300 -1,680 Descending Houston Center
12:37PM 30.2397 -94.2911 236° Southwest 344 396 12,200 -720 Descending Houston Center
12:38PM 30.1919 -94.4061 244° Southwest 341 392 12,000 -120 Descending Houston Center
12:39PM 30.1753 -94.5017 259° West 346 398 12,000 -360 Level Houston Center
12:40PM 30.1533 -94.6289 259° West 337 388 11,300 -960 Descending Houston Center
12:42PM 30.1353 -94.7306 258° West 287 330 10,000 -1,500 Descending Houston Center
12:43PM 30.1169 -94.8247 257° West 273 314 8,200 -1,500 Descending Houston Center
12:44PM 30.1075 -94.8931 261° West 272 313 7,000 -1,080 Descending Houston Center
12:45PM 30.1061 -94.9975 269° West 262 302 6,000 -480 Descending Houston Center
12:46PM 30.1061 -95.0869 270° West 268 308 6,000  Level Houston Center
12:47PM 30.1047 -95.1644 269° West 266 306 6,000  Level Houston Center
12:48PM 30.1064 -95.2483 271° West 266 306 6,000  Level Houston Center
12:49PM 30.1067 -95.3453 270° West 268 308 6,000 -360 Level Houston Center
12:50PM 30.1056 -95.4253 269° West 267 307 5,400 -1,200 Descending Houston Center
12:51PM 30.1061 -95.5217 270° West 261 300 3,600 -1,200 Descending Houston Center
12:52PM 30.1067 -95.5989 270° West 260 299 3,000 -300 Descending Houston Center
12:53PM 30.0933 -95.6850 260° West 243 280 3,000  Level Houston Center
12:54PM 30.0444 -95.7028 197° South 194 223 3,000  Level Houston Center
12:55PM 30.0056 -95.6664 141° Southeast 212 244 3,000  Level Houston Center
12:56PM 30.0069 -95.5889 89° East 221 254 3,000 -120 Level Houston Center
12:57PM 30.0069 -95.5189 90° East 207 238 2,800 -600 Descending Houston Center
12:58PM 30.0058 -95.4589 91° East 182 209 1,800 -1,020 Descending Houston Center